sensor_id;sensor_type;location;lat;lon;timestamp;P1;durP1;ratioP1;P2;durP2;ratioP2
25127;SDS011;13107;51.304;6.866;2024-03-06T00:03:26;22.15;;;12.98;;
25127;SDS011;13107;51.304;6.866;2024-03-06T00:07:28;23.10;;;13.43;;
25127;SDS011;13107;51.304;6.866;2024-03-06T00:11:30;18.02;;;11.90;;
25127;SDS011;13107;51.304;6.866;2024-03-06T00:15:32;23.83;;;13.20;;
25127;SDS011;13107;51.304;6.866;2024-03-06T00:19:34;22.33;;;11.82;;
25127;SDS011;13107;51.304;6.866;2024-03-06T00:23:36;23.02;;;12.60;;
25127;SDS011;13107;51.304;6.866;2024-03-06T00:27:38;20.85;;;12.07;;
25127;SDS011;13107;51.304;6.866;2024-03-06T00:31:46;20.90;;;12.80;;
25127;SDS011;13107;51.304;6.866;2024-03-06T00:35:48;20.58;;;12.43;;
25127;SDS011;13107;51.304;6.866;2024-03-06T00:39:50;21.92;;;12.20;;
25127;SDS011;13107;51.304;6.866;2024-03-06T00:43:52;17.65;;;11.73;;
25127;SDS011;13107;51.304;6.866;2024-03-06T00:47:54;18.40;;;11.82;;
25127;SDS011;13107;51.304;6.866;2024-03-06T00:51:55;18.10;;;11.73;;
25127;SDS011;13107;51.304;6.866;2024-03-06T00:55:57;19.33;;;12.18;;
25127;SDS011;13107;51.304;6.866;2024-03-06T00:59:59;19.40;;;11.90;;
25127;SDS011;13107;51.304;6.866;2024-03-06T01:04:01;20.50;;;11.75;;
25127;SDS011;13107;51.304;6.866;2024-03-06T01:08:03;18.27;;;11.82;;
25127;SDS011;13107;51.304;6.866;2024-03-06T01:12:05;18.58;;;12.50;;
25127;SDS011;13107;51.304;6.866;2024-03-06T01:16:07;18.10;;;12.32;;
25127;SDS011;13107;51.304;6.866;2024-03-06T01:20:09;21.02;;;12.35;;
25127;SDS011;13107;51.304;6.866;2024-03-06T01:24:12;21.23;;;11.98;;
25127;SDS011;13107;51.304;6.866;2024-03-06T01:28:13;20.58;;;12.75;;
25127;SDS011;13107;51.304;6.866;2024-03-06T01:32:15;20.77;;;12.77;;
25127;SDS011;13107;51.304;6.866;2024-03-06T01:36:17;21.77;;;13.15;;
25127;SDS011;13107;51.304;6.866;2024-03-06T01:40:19;23.20;;;13.23;;
25127;SDS011;13107;51.304;6.866;2024-03-06T01:44:21;21.37;;;12.68;;
25127;SDS011;13107;51.304;6.866;2024-03-06T01:48:23;20.65;;;12.13;;
25127;SDS011;13107;51.304;6.866;2024-03-06T01:52:32;21.27;;;12.80;;
25127;SDS011;13107;51.304;6.866;2024-03-06T01:56:34;18.85;;;11.60;;
25127;SDS011;13107;51.304;6.866;2024-03-06T02:00:38;19.67;;;12.05;;
25127;SDS011;13107;51.304;6.866;2024-03-06T02:04:40;18.62;;;12.57;;
25127;SDS011;13107;51.304;6.866;2024-03-06T02:08:42;21.33;;;13.13;;
25127;SDS011;13107;51.304;6.866;2024-03-06T02:12:44;21.15;;;12.60;;
25127;SDS011;13107;51.304;6.866;2024-03-06T02:16:46;18.98;;;11.65;;
25127;SDS011;13107;51.304;6.866;2024-03-06T02:20:48;21.20;;;12.63;;
25127;SDS011;13107;51.304;6.866;2024-03-06T02:24:51;20.23;;;12.25;;
25127;SDS011;13107;51.304;6.866;2024-03-06T02:28:54;19.33;;;12.30;;
25127;SDS011;13107;51.304;6.866;2024-03-06T02:32:58;21.25;;;12.48;;
25127;SDS011;13107;51.304;6.866;2024-03-06T02:37:00;19.20;;;11.95;;
25127;SDS011;13107;51.304;6.866;2024-03-06T02:41:02;22.90;;;12.15;;
25127;SDS011;13107;51.304;6.866;2024-03-06T02:45:05;23.67;;;12.43;;
25127;SDS011;13107;51.304;6.866;2024-03-06T02:49:08;21.75;;;11.43;;
25127;SDS011;13107;51.304;6.866;2024-03-06T02:53:10;21.80;;;12.57;;
25127;SDS011;13107;51.304;6.866;2024-03-06T02:57:12;21.37;;;12.27;;
25127;SDS011;13107;51.304;6.866;2024-03-06T03:01:14;19.73;;;12.23;;
25127;SDS011;13107;51.304;6.866;2024-03-06T03:05:16;23.27;;;12.70;;
25127;SDS011;13107;51.304;6.866;2024-03-06T03:09:18;23.65;;;12.82;;
25127;SDS011;13107;51.304;6.866;2024-03-06T03:13:20;19.60;;;12.20;;
25127;SDS011;13107;51.304;6.866;2024-03-06T03:17:22;23.55;;;12.43;;
25127;SDS011;13107;51.304;6.866;2024-03-06T03:21:25;20.15;;;11.85;;
25127;SDS011;13107;51.304;6.866;2024-03-06T03:25:26;23.35;;;12.63;;
25127;SDS011;13107;51.304;6.866;2024-03-06T03:29:28;22.20;;;13.18;;
25127;SDS011;13107;51.304;6.866;2024-03-06T03:33:31;22.05;;;13.65;;
25127;SDS011;13107;51.304;6.866;2024-03-06T03:37:33;20.73;;;13.15;;
25127;SDS011;13107;51.304;6.866;2024-03-06T03:41:35;23.67;;;13.32;;
25127;SDS011;13107;51.304;6.866;2024-03-06T03:45:36;22.58;;;14.70;;
25127;SDS011;13107;51.304;6.866;2024-03-06T03:49:38;20.92;;;12.65;;
25127;SDS011;13107;51.304;6.866;2024-03-06T03:53:40;21.15;;;12.73;;
25127;SDS011;13107;51.304;6.866;2024-03-06T03:57:42;24.90;;;12.65;;
25127;SDS011;13107;51.304;6.866;2024-03-06T04:01:47;22.02;;;13.13;;
25127;SDS011;13107;51.304;6.866;2024-03-06T04:05:49;22.77;;;13.05;;
25127;SDS011;13107;51.304;6.866;2024-03-06T04:09:51;23.95;;;13.62;;
25127;SDS011;13107;51.304;6.866;2024-03-06T04:13:53;25.77;;;14.07;;
25127;SDS011;13107;51.304;6.866;2024-03-06T04:17:54;22.52;;;12.63;;
25127;SDS011;13107;51.304;6.866;2024-03-06T04:22:10;26.70;;;12.88;;
25127;SDS011;13107;51.304;6.866;2024-03-06T04:26:11;20.48;;;11.85;;
25127;SDS011;13107;51.304;6.866;2024-03-06T04:30:14;22.70;;;12.45;;
25127;SDS011;13107;51.304;6.866;2024-03-06T04:34:16;20.05;;;12.07;;
25127;SDS011;13107;51.304;6.866;2024-03-06T04:38:18;23.25;;;12.65;;
25127;SDS011;13107;51.304;6.866;2024-03-06T04:42:19;26.73;;;12.55;;
25127;SDS011;13107;51.304;6.866;2024-03-06T04:46:21;23.95;;;13.60;;
25127;SDS011;13107;51.304;6.866;2024-03-06T04:50:24;20.12;;;12.18;;
25127;SDS011;13107;51.304;6.866;2024-03-06T04:54:26;19.65;;;12.55;;
25127;SDS011;13107;51.304;6.866;2024-03-06T04:58:27;22.65;;;12.75;;
25127;SDS011;13107;51.304;6.866;2024-03-06T05:02:29;25.58;;;13.20;;
25127;SDS011;13107;51.304;6.866;2024-03-06T05:06:45;23.65;;;13.13;;
25127;SDS011;13107;51.304;6.866;2024-03-06T05:11:05;21.80;;;13.18;;
25127;SDS011;13107;51.304;6.866;2024-03-06T05:15:25;24.10;;;13.55;;
25127;SDS011;13107;51.304;6.866;2024-03-06T05:19:45;25.98;;;14.45;;
25127;SDS011;13107;51.304;6.866;2024-03-06T05:24:06;21.17;;;12.27;;
25127;SDS011;13107;51.304;6.866;2024-03-06T05:28:25;23.17;;;12.63;;
25127;SDS011;13107;51.304;6.866;2024-03-06T05:32:46;23.52;;;13.35;;
25127;SDS011;13107;51.304;6.866;2024-03-06T05:37:05;24.40;;;13.80;;
25127;SDS011;13107;51.304;6.866;2024-03-06T05:41:25;25.42;;;13.48;;
25127;SDS011;13107;51.304;6.866;2024-03-06T05:45:44;24.95;;;12.98;;
25127;SDS011;13107;51.304;6.866;2024-03-06T05:50:06;27.30;;;13.52;;
25127;SDS011;13107;51.304;6.866;2024-03-06T05:54:26;24.20;;;13.73;;
25127;SDS011;13107;51.304;6.866;2024-03-06T05:58:46;27.95;;;13.65;;
25127;SDS011;13107;51.304;6.866;2024-03-06T06:02:48;23.48;;;13.93;;
25127;SDS011;13107;51.304;6.866;2024-03-06T06:06:50;23.02;;;13.07;;
25127;SDS011;13107;51.304;6.866;2024-03-06T06:10:52;24.65;;;14.48;;
25127;SDS011;13107;51.304;6.866;2024-03-06T06:14:54;24.73;;;14.07;;
25127;SDS011;13107;51.304;6.866;2024-03-06T06:18:56;25.12;;;13.27;;
25127;SDS011;13107;51.304;6.866;2024-03-06T06:22:58;29.55;;;16.80;;
25127;SDS011;13107;51.304;6.866;2024-03-06T06:27:00;28.23;;;15.13;;
25127;SDS011;13107;51.304;6.866;2024-03-06T06:31:01;26.58;;;14.43;;
25127;SDS011;13107;51.304;6.866;2024-03-06T06:35:04;24.77;;;14.10;;
25127;SDS011;13107;51.304;6.866;2024-03-06T06:39:06;25.37;;;15.55;;
25127;SDS011;13107;51.304;6.866;2024-03-06T06:43:10;26.15;;;14.40;;
25127;SDS011;13107;51.304;6.866;2024-03-06T06:47:12;46.28;;;26.00;;
25127;SDS011;13107;51.304;6.866;2024-03-06T06:51:14;28.80;;;15.82;;
25127;SDS011;13107;51.304;6.866;2024-03-06T06:55:15;25.60;;;14.30;;
25127;SDS011;13107;51.304;6.866;2024-03-06T06:59:17;31.65;;;16.65;;
25127;SDS011;13107;51.304;6.866;2024-03-06T07:03:23;30.73;;;17.15;;
25127;SDS011;13107;51.304;6.866;2024-03-06T07:07:30;30.52;;;16.27;;
25127;SDS011;13107;51.304;6.866;2024-03-06T07:11:32;29.23;;;15.63;;
25127;SDS011;13107;51.304;6.866;2024-03-06T07:15:34;29.55;;;16.00;;
25127;SDS011;13107;51.304;6.866;2024-03-06T07:19:36;28.85;;;16.33;;
25127;SDS011;13107;51.304;6.866;2024-03-06T07:23:38;30.35;;;16.73;;
25127;SDS011;13107;51.304;6.866;2024-03-06T07:27:40;36.58;;;16.77;;
25127;SDS011;13107;51.304;6.866;2024-03-06T07:31:42;33.00;;;17.12;;
25127;SDS011;13107;51.304;6.866;2024-03-06T07:35:45;36.67;;;18.70;;
25127;SDS011;13107;51.304;6.866;2024-03-06T07:39:47;39.15;;;19.80;;
25127;SDS011;13107;51.304;6.866;2024-03-06T07:43:52;39.17;;;19.15;;
25127;SDS011;13107;51.304;6.866;2024-03-06T07:47:54;40.65;;;21.15;;
25127;SDS011;13107;51.304;6.866;2024-03-06T07:51:57;42.03;;;20.52;;
25127;SDS011;13107;51.304;6.866;2024-03-06T07:55:59;40.83;;;21.45;;
25127;SDS011;13107;51.304;6.866;2024-03-06T08:00:01;49.13;;;22.45;;
25127;SDS011;13107;51.304;6.866;2024-03-06T08:04:09;50.58;;;24.48;;
25127;SDS011;13107;51.304;6.866;2024-03-06T08:08:11;57.17;;;28.23;;
25127;SDS011;13107;51.304;6.866;2024-03-06T08:12:13;59.40;;;29.12;;
25127;SDS011;13107;51.304;6.866;2024-03-06T08:16:15;67.80;;;29.08;;
25127;SDS011;13107;51.304;6.866;2024-03-06T08:20:18;58.22;;;28.33;;
25127;SDS011;13107;51.304;6.866;2024-03-06T08:24:20;58.90;;;30.17;;
25127;SDS011;13107;51.304;6.866;2024-03-06T08:28:22;58.83;;;29.98;;
25127;SDS011;13107;51.304;6.866;2024-03-06T08:32:24;52.67;;;27.98;;
25127;SDS011;13107;51.304;6.866;2024-03-06T08:36:26;52.40;;;27.13;;
25127;SDS011;13107;51.304;6.866;2024-03-06T08:40:27;52.17;;;27.08;;
25127;SDS011;13107;51.304;6.866;2024-03-06T08:44:29;50.38;;;27.30;;
25127;SDS011;13107;51.304;6.866;2024-03-06T08:48:31;48.38;;;26.42;;
25127;SDS011;13107;51.304;6.866;2024-03-06T08:52:33;50.65;;;27.42;;
25127;SDS011;13107;51.304;6.866;2024-03-06T08:56:38;44.92;;;25.67;;
25127;SDS011;13107;51.304;6.866;2024-03-06T09:00:40;45.50;;;25.83;;
25127;SDS011;13107;51.304;6.866;2024-03-06T09:04:42;44.15;;;24.87;;
25127;SDS011;13107;51.304;6.866;2024-03-06T09:08:44;42.25;;;24.02;;
25127;SDS011;13107;51.304;6.866;2024-03-06T09:12:46;41.65;;;23.10;;
25127;SDS011;13107;51.304;6.866;2024-03-06T09:16:48;41.92;;;23.33;;
25127;SDS011;13107;51.304;6.866;2024-03-06T09:20:50;42.78;;;23.30;;
25127;SDS011;13107;51.304;6.866;2024-03-06T09:24:51;44.58;;;24.10;;
25127;SDS011;13107;51.304;6.866;2024-03-06T09:28:53;40.92;;;23.33;;
25127;SDS011;13107;51.304;6.866;2024-03-06T09:32:55;43.55;;;23.17;;
25127;SDS011;13107;51.304;6.866;2024-03-06T09:36:57;42.85;;;24.35;;
25127;SDS011;13107;51.304;6.866;2024-03-06T09:40:59;42.85;;;24.30;;
25127;SDS011;13107;51.304;6.866;2024-03-06T09:45:01;44.28;;;25.10;;
25127;SDS011;13107;51.304;6.866;2024-03-06T09:49:03;43.05;;;24.17;;
25127;SDS011;13107;51.304;6.866;2024-03-06T09:53:06;40.83;;;24.27;;
25127;SDS011;13107;51.304;6.866;2024-03-06T09:57:11;44.30;;;25.48;;
25127;SDS011;13107;51.304;6.866;2024-03-06T10:01:15;40.78;;;23.15;;
25127;SDS011;13107;51.304;6.866;2024-03-06T10:05:21;39.13;;;23.77;;
25127;SDS011;13107;51.304;6.866;2024-03-06T10:09:24;38.23;;;22.93;;
25127;SDS011;13107;51.304;6.866;2024-03-06T10:13:27;43.15;;;23.62;;
25127;SDS011;13107;51.304;6.866;2024-03-06T10:17:30;40.65;;;24.05;;
25127;SDS011;13107;51.304;6.866;2024-03-06T10:21:32;44.28;;;25.27;;
25127;SDS011;13107;51.304;6.866;2024-03-06T10:25:34;40.75;;;23.10;;
25127;SDS011;13107;51.304;6.866;2024-03-06T10:29:36;43.67;;;24.85;;
25127;SDS011;13107;51.304;6.866;2024-03-06T10:33:38;42.13;;;24.87;;
25127;SDS011;13107;51.304;6.866;2024-03-06T10:37:40;44.40;;;26.60;;
25127;SDS011;13107;51.304;6.866;2024-03-06T10:41:43;45.67;;;26.87;;
25127;SDS011;13107;51.304;6.866;2024-03-06T10:45:49;50.08;;;30.30;;
25127;SDS011;13107;51.304;6.866;2024-03-06T10:49:52;47.53;;;30.08;;
25127;SDS011;13107;51.304;6.866;2024-03-06T10:53:55;50.05;;;30.30;;
25127;SDS011;13107;51.304;6.866;2024-03-06T10:57:59;48.10;;;31.20;;
25127;SDS011;13107;51.304;6.866;2024-03-06T11:02:01;50.05;;;31.48;;
25127;SDS011;13107;51.304;6.866;2024-03-06T11:06:03;50.50;;;31.77;;
25127;SDS011;13107;51.304;6.866;2024-03-06T11:10:29;55.12;;;32.35;;
25127;SDS011;13107;51.304;6.866;2024-03-06T11:14:32;53.85;;;32.10;;
25127;SDS011;13107;51.304;6.866;2024-03-06T11:27:03;50.97;;;30.83;;
25127;SDS011;13107;51.304;6.866;2024-03-06T11:31:09;48.67;;;31.25;;
25127;SDS011;13107;51.304;6.866;2024-03-06T11:35:19;46.37;;;30.25;;
25127;SDS011;13107;51.304;6.866;2024-03-06T11:39:23;46.97;;;29.48;;
25127;SDS011;13107;51.304;6.866;2024-03-06T11:43:25;51.97;;;31.30;;
25127;SDS011;13107;51.304;6.866;2024-03-06T11:47:28;44.80;;;29.75;;
25127;SDS011;13107;51.304;6.866;2024-03-06T11:51:30;44.65;;;28.80;;
25127;SDS011;13107;51.304;6.866;2024-03-06T11:55:33;46.00;;;29.20;;
25127;SDS011;13107;51.304;6.866;2024-03-06T11:59:35;42.22;;;28.23;;
25127;SDS011;13107;51.304;6.866;2024-03-06T12:03:41;40.17;;;27.42;;
25127;SDS011;13107;51.304;6.866;2024-03-06T12:07:47;36.75;;;25.50;;
25127;SDS011;13107;51.304;6.866;2024-03-06T12:11:49;39.65;;;24.80;;
25127;SDS011;13107;51.304;6.866;2024-03-06T12:15:51;27.33;;;20.20;;
25127;SDS011;13107;51.304;6.866;2024-03-06T12:19:54;31.23;;;21.35;;
25127;SDS011;13107;51.304;6.866;2024-03-06T12:24:03;33.78;;;21.20;;
25127;SDS011;13107;51.304;6.866;2024-03-06T12:28:11;32.28;;;20.15;;
25127;SDS011;13107;51.304;6.866;2024-03-06T12:32:16;32.05;;;22.20;;
25127;SDS011;13107;51.304;6.866;2024-03-06T12:40:27;24.27;;;16.45;;
25127;SDS011;13107;51.304;6.866;2024-03-06T12:44:29;21.77;;;14.40;;
25127;SDS011;13107;51.304;6.866;2024-03-06T12:48:31;24.42;;;16.45;;
25127;SDS011;13107;51.304;6.866;2024-03-06T12:52:34;32.03;;;21.12;;
25127;SDS011;13107;51.304;6.866;2024-03-06T12:56:36;32.58;;;20.65;;
25127;SDS011;13107;51.304;6.866;2024-03-06T13:00:38;33.15;;;21.12;;
25127;SDS011;13107;51.304;6.866;2024-03-06T13:04:40;32.28;;;21.23;;
25127;SDS011;13107;51.304;6.866;2024-03-06T13:08:41;33.70;;;20.27;;
25127;SDS011;13107;51.304;6.866;2024-03-06T13:12:43;30.23;;;18.05;;
25127;SDS011;13107;51.304;6.866;2024-03-06T13:16:45;28.62;;;18.17;;
25127;SDS011;13107;51.304;6.866;2024-03-06T13:20:47;27.02;;;17.48;;
25127;SDS011;13107;51.304;6.866;2024-03-06T13:24:49;26.60;;;17.42;;
25127;SDS011;13107;51.304;6.866;2024-03-06T13:28:52;24.35;;;17.20;;
25127;SDS011;13107;51.304;6.866;2024-03-06T13:32:54;26.50;;;17.58;;
25127;SDS011;13107;51.304;6.866;2024-03-06T13:36:56;24.25;;;16.30;;
25127;SDS011;13107;51.304;6.866;2024-03-06T13:40:58;24.67;;;15.32;;
25127;SDS011;13107;51.304;6.866;2024-03-06T13:45:03;25.85;;;16.87;;
25127;SDS011;13107;51.304;6.866;2024-03-06T13:49:06;22.95;;;15.68;;
25127;SDS011;13107;51.304;6.866;2024-03-06T13:53:07;23.27;;;15.75;;
25127;SDS011;13107;51.304;6.866;2024-03-06T13:57:09;21.90;;;14.52;;
25127;SDS011;13107;51.304;6.866;2024-03-06T14:01:11;24.37;;;15.43;;
25127;SDS011;13107;51.304;6.866;2024-03-06T14:05:14;24.92;;;16.00;;
25127;SDS011;13107;51.304;6.866;2024-03-06T14:09:16;22.83;;;14.48;;
25127;SDS011;13107;51.304;6.866;2024-03-06T14:13:18;23.33;;;15.15;;
25127;SDS011;13107;51.304;6.866;2024-03-06T14:17:20;22.58;;;14.40;;
25127;SDS011;13107;51.304;6.866;2024-03-06T14:21:22;17.87;;;12.25;;
25127;SDS011;13107;51.304;6.866;2024-03-06T14:25:24;17.17;;;11.68;;
25127;SDS011;13107;51.304;6.866;2024-03-06T14:29:25;22.62;;;14.73;;
25127;SDS011;13107;51.304;6.866;2024-03-06T14:33:30;16.52;;;11.60;;
25127;SDS011;13107;51.304;6.866;2024-03-06T14:37:32;16.12;;;11.02;;
25127;SDS011;13107;51.304;6.866;2024-03-06T14:41:34;20.62;;;13.60;;
25127;SDS011;13107;51.304;6.866;2024-03-06T14:45:36;18.87;;;12.65;;
25127;SDS011;13107;51.304;6.866;2024-03-06T14:49:43;22.17;;;13.82;;
25127;SDS011;13107;51.304;6.866;2024-03-06T14:53:51;21.95;;;14.73;;
25127;SDS011;13107;51.304;6.866;2024-03-06T14:57:53;21.30;;;14.43;;
25127;SDS011;13107;51.304;6.866;2024-03-06T15:01:55;23.23;;;15.52;;
25127;SDS011;13107;51.304;6.866;2024-03-06T15:05:57;23.80;;;14.85;;
25127;SDS011;13107;51.304;6.866;2024-03-06T15:09:59;25.08;;;15.57;;
25127;SDS011;13107;51.304;6.866;2024-03-06T15:14:01;21.00;;;15.25;;
25127;SDS011;13107;51.304;6.866;2024-03-06T15:18:03;25.40;;;16.15;;
25127;SDS011;13107;51.304;6.866;2024-03-06T15:22:05;26.73;;;17.15;;
25127;SDS011;13107;51.304;6.866;2024-03-06T15:26:06;22.77;;;15.30;;
25127;SDS011;13107;51.304;6.866;2024-03-06T15:30:08;31.25;;;20.05;;
25127;SDS011;13107;51.304;6.866;2024-03-06T15:34:10;29.92;;;19.67;;
25127;SDS011;13107;51.304;6.866;2024-03-06T15:38:13;29.45;;;20.73;;
25127;SDS011;13107;51.304;6.866;2024-03-06T15:42:15;35.20;;;24.70;;
25127;SDS011;13107;51.304;6.866;2024-03-06T15:46:17;34.97;;;21.90;;
25127;SDS011;13107;51.304;6.866;2024-03-06T15:50:18;35.75;;;24.42;;
25127;SDS011;13107;51.304;6.866;2024-03-06T15:54:21;34.55;;;25.15;;
25127;SDS011;13107;51.304;6.866;2024-03-06T15:58:23;36.20;;;24.98;;
25127;SDS011;13107;51.304;6.866;2024-03-06T16:02:25;33.97;;;24.00;;
25127;SDS011;13107;51.304;6.866;2024-03-06T16:06:27;31.23;;;24.05;;
25127;SDS011;13107;51.304;6.866;2024-03-06T16:10:40;32.45;;;23.60;;
25127;SDS011;13107;51.304;6.866;2024-03-06T16:14:42;34.65;;;26.37;;
25127;SDS011;13107;51.304;6.866;2024-03-06T16:18:44;36.35;;;26.15;;
25127;SDS011;13107;51.304;6.866;2024-03-06T16:22:46;31.98;;;24.02;;
25127;SDS011;13107;51.304;6.866;2024-03-06T16:26:48;32.13;;;24.25;;
25127;SDS011;13107;51.304;6.866;2024-03-06T16:30:49;35.72;;;24.98;;
25127;SDS011;13107;51.304;6.866;2024-03-06T16:34:51;34.80;;;24.02;;
25127;SDS011;13107;51.304;6.866;2024-03-06T16:38:53;32.83;;;24.05;;
25127;SDS011;13107;51.304;6.866;2024-03-06T16:42:55;30.25;;;22.02;;
25127;SDS011;13107;51.304;6.866;2024-03-06T16:46:57;30.65;;;23.83;;
25127;SDS011;13107;51.304;6.866;2024-03-06T16:50:59;31.62;;;25.45;;
25127;SDS011;13107;51.304;6.866;2024-03-06T16:55:01;31.73;;;24.60;;
25127;SDS011;13107;51.304;6.866;2024-03-06T16:59:02;31.87;;;23.23;;
25127;SDS011;13107;51.304;6.866;2024-03-06T17:03:04;34.65;;;23.67;;
25127;SDS011;13107;51.304;6.866;2024-03-06T17:07:06;29.87;;;22.13;;
25127;SDS011;13107;51.304;6.866;2024-03-06T17:11:11;30.75;;;22.65;;
25127;SDS011;13107;51.304;6.866;2024-03-06T17:15:13;27.13;;;21.05;;
25127;SDS011;13107;51.304;6.866;2024-03-06T17:19:16;30.02;;;21.10;;
25127;SDS011;13107;51.304;6.866;2024-03-06T17:23:17;31.85;;;21.80;;
25127;SDS011;13107;51.304;6.866;2024-03-06T17:27:19;31.55;;;23.02;;
25127;SDS011;13107;51.304;6.866;2024-03-06T17:31:21;27.95;;;21.30;;
25127;SDS011;13107;51.304;6.866;2024-03-06T17:35:23;27.67;;;20.50;;
25127;SDS011;13107;51.304;6.866;2024-03-06T17:39:25;24.90;;;19.50;;
25127;SDS011;13107;51.304;6.866;2024-03-06T17:43:27;30.02;;;20.90;;
25127;SDS011;13107;51.304;6.866;2024-03-06T17:47:29;27.20;;;20.15;;
25127;SDS011;13107;51.304;6.866;2024-03-06T17:51:31;27.40;;;19.40;;
25127;SDS011;13107;51.304;6.866;2024-03-06T17:55:33;25.08;;;19.40;;
25127;SDS011;13107;51.304;6.866;2024-03-06T17:59:35;26.10;;;19.48;;
25127;SDS011;13107;51.304;6.866;2024-03-06T18:03:39;27.77;;;19.65;;
25127;SDS011;13107;51.304;6.866;2024-03-06T18:07:42;26.35;;;19.00;;
25127;SDS011;13107;51.304;6.866;2024-03-06T18:11:47;27.75;;;20.67;;
25127;SDS011;13107;51.304;6.866;2024-03-06T18:15:49;26.08;;;19.25;;
25127;SDS011;13107;51.304;6.866;2024-03-06T18:19:53;26.12;;;19.12;;
25127;SDS011;13107;51.304;6.866;2024-03-06T18:23:55;29.87;;;20.70;;
25127;SDS011;13107;51.304;6.866;2024-03-06T18:27:57;25.83;;;17.48;;
25127;SDS011;13107;51.304;6.866;2024-03-06T18:31:58;24.77;;;17.67;;
25127;SDS011;13107;51.304;6.866;2024-03-06T18:36:00;30.08;;;18.02;;
25127;SDS011;13107;51.304;6.866;2024-03-06T18:40:04;28.00;;;18.42;;
25127;SDS011;13107;51.304;6.866;2024-03-06T18:44:06;31.10;;;18.42;;
25127;SDS011;13107;51.304;6.866;2024-03-06T18:48:08;30.25;;;19.55;;
25127;SDS011;13107;51.304;6.866;2024-03-06T18:52:10;31.30;;;19.00;;
25127;SDS011;13107;51.304;6.866;2024-03-06T18:56:12;32.95;;;21.12;;
25127;SDS011;13107;51.304;6.866;2024-03-06T19:00:14;31.60;;;20.80;;
25127;SDS011;13107;51.304;6.866;2024-03-06T19:04:16;32.50;;;20.75;;
25127;SDS011;13107;51.304;6.866;2024-03-06T19:08:22;32.43;;;19.80;;
25127;SDS011;13107;51.304;6.866;2024-03-06T19:12:24;34.80;;;21.62;;
25127;SDS011;13107;51.304;6.866;2024-03-06T19:16:26;39.28;;;22.67;;
25127;SDS011;13107;51.304;6.866;2024-03-06T19:20:28;36.33;;;20.50;;
25127;SDS011;13107;51.304;6.866;2024-03-06T19:24:30;33.17;;;21.75;;
25127;SDS011;13107;51.304;6.866;2024-03-06T19:28:32;38.03;;;23.42;;
25127;SDS011;13107;51.304;6.866;2024-03-06T19:32:37;36.33;;;23.55;;
25127;SDS011;13107;51.304;6.866;2024-03-06T19:36:54;37.95;;;24.25;;
25127;SDS011;13107;51.304;6.866;2024-03-06T19:40:56;40.88;;;24.75;;
25127;SDS011;13107;51.304;6.866;2024-03-06T19:44:58;40.92;;;24.83;;
25127;SDS011;13107;51.304;6.866;2024-03-06T19:49:00;39.45;;;24.25;;
25127;SDS011;13107;51.304;6.866;2024-03-06T19:53:02;41.22;;;24.12;;
25127;SDS011;13107;51.304;6.866;2024-03-06T19:57:04;38.42;;;24.77;;
25127;SDS011;13107;51.304;6.866;2024-03-06T20:01:07;41.65;;;26.35;;
25127;SDS011;13107;51.304;6.866;2024-03-06T20:05:09;41.95;;;25.85;;
25127;SDS011;13107;51.304;6.866;2024-03-06T20:09:15;42.50;;;27.00;;
25127;SDS011;13107;51.304;6.866;2024-03-06T20:13:17;47.97;;;27.55;;
25127;SDS011;13107;51.304;6.866;2024-03-06T20:17:19;44.97;;;25.75;;
25127;SDS011;13107;51.304;6.866;2024-03-06T20:21:21;50.33;;;27.75;;
25127;SDS011;13107;51.304;6.866;2024-03-06T20:25:23;43.25;;;26.70;;
25127;SDS011;13107;51.304;6.866;2024-03-06T20:29:25;47.70;;;26.87;;
25127;SDS011;13107;51.304;6.866;2024-03-06T20:33:28;45.83;;;27.70;;
25127;SDS011;13107;51.304;6.866;2024-03-06T20:37:33;45.25;;;26.48;;
25127;SDS011;13107;51.304;6.866;2024-03-06T20:41:35;45.45;;;27.77;;
25127;SDS011;13107;51.304;6.866;2024-03-06T20:45:40;52.42;;;28.80;;
25127;SDS011;13107;51.304;6.866;2024-03-06T20:49:44;46.33;;;28.42;;
25127;SDS011;13107;51.304;6.866;2024-03-06T20:53:46;45.67;;;26.75;;
25127;SDS011;13107;51.304;6.866;2024-03-06T20:57:48;47.10;;;28.55;;
25127;SDS011;13107;51.304;6.866;2024-03-06T21:01:50;44.75;;;27.33;;
25127;SDS011;13107;51.304;6.866;2024-03-06T21:05:54;51.65;;;27.98;;
25127;SDS011;13107;51.304;6.866;2024-03-06T21:09:56;48.70;;;28.58;;
25127;SDS011;13107;51.304;6.866;2024-03-06T21:13:57;48.97;;;27.90;;
25127;SDS011;13107;51.304;6.866;2024-03-06T21:18:00;51.97;;;30.25;;
25127;SDS011;13107;51.304;6.866;2024-03-06T21:22:02;53.33;;;28.85;;
25127;SDS011;13107;51.304;6.866;2024-03-06T21:26:05;53.10;;;29.15;;
25127;SDS011;13107;51.304;6.866;2024-03-06T21:30:07;51.72;;;30.37;;
25127;SDS011;13107;51.304;6.866;2024-03-06T21:34:10;59.47;;;31.70;;
25127;SDS011;13107;51.304;6.866;2024-03-06T21:38:13;53.83;;;29.75;;
25127;SDS011;13107;51.304;6.866;2024-03-06T21:42:18;58.83;;;30.55;;
25127;SDS011;13107;51.304;6.866;2024-03-06T21:46:20;59.55;;;30.70;;
25127;SDS011;13107;51.304;6.866;2024-03-06T21:50:22;62.78;;;32.45;;
25127;SDS011;13107;51.304;6.866;2024-03-06T21:54:24;57.92;;;31.25;;
25127;SDS011;13107;51.304;6.866;2024-03-06T21:58:26;56.50;;;30.92;;
25127;SDS011;13107;51.304;6.866;2024-03-06T22:02:29;56.20;;;29.75;;
25127;SDS011;13107;51.304;6.866;2024-03-06T22:06:30;58.08;;;31.73;;
25127;SDS011;13107;51.304;6.866;2024-03-06T22:10:32;57.72;;;32.17;;
25127;SDS011;13107;51.304;6.866;2024-03-06T22:14:34;54.00;;;30.33;;
25127;SDS011;13107;51.304;6.866;2024-03-06T22:18:36;58.08;;;30.23;;
25127;SDS011;13107;51.304;6.866;2024-03-06T22:22:37;53.70;;;28.27;;
25127;SDS011;13107;51.304;6.866;2024-03-06T22:26:39;53.40;;;26.65;;
25127;SDS011;13107;51.304;6.866;2024-03-06T22:30:41;44.08;;;24.60;;
25127;SDS011;13107;51.304;6.866;2024-03-06T22:34:44;44.10;;;23.70;;
25127;SDS011;13107;51.304;6.866;2024-03-06T22:38:46;39.60;;;24.08;;
25127;SDS011;13107;51.304;6.866;2024-03-06T22:42:49;44.70;;;24.02;;
25127;SDS011;13107;51.304;6.866;2024-03-06T22:46:51;39.30;;;22.10;;
25127;SDS011;13107;51.304;6.866;2024-03-06T22:50:58;42.65;;;22.45;;
25127;SDS011;13107;51.304;6.866;2024-03-06T22:55:00;37.75;;;21.80;;
25127;SDS011;13107;51.304;6.866;2024-03-06T22:59:06;46.17;;;21.92;;
25127;SDS011;13107;51.304;6.866;2024-03-06T23:03:07;41.80;;;22.23;;
25127;SDS011;13107;51.304;6.866;2024-03-06T23:07:09;41.78;;;22.55;;
25127;SDS011;13107;51.304;6.866;2024-03-06T23:11:11;40.00;;;21.85;;
25127;SDS011;13107;51.304;6.866;2024-03-06T23:15:14;37.88;;;21.58;;
25127;SDS011;13107;51.304;6.866;2024-03-06T23:19:16;41.53;;;22.17;;
25127;SDS011;13107;51.304;6.866;2024-03-06T23:23:18;40.67;;;20.88;;
25127;SDS011;13107;51.304;6.866;2024-03-06T23:27:20;36.17;;;20.00;;
25127;SDS011;13107;51.304;6.866;2024-03-06T23:31:22;40.80;;;21.62;;
25127;SDS011;13107;51.304;6.866;2024-03-06T23:35:24;37.70;;;20.73;;
25127;SDS011;13107;51.304;6.866;2024-03-06T23:39:25;35.63;;;20.37;;
25127;SDS011;13107;51.304;6.866;2024-03-06T23:43:27;42.05;;;22.95;;
25127;SDS011;13107;51.304;6.866;2024-03-06T23:47:29;40.30;;;21.58;;
25127;SDS011;13107;51.304;6.866;2024-03-06T23:51:32;40.88;;;21.70;;
25127;SDS011;13107;51.304;6.866;2024-03-06T23:55:34;38.00;;;21.62;;